sensor_id;sensor_type;location;lat;lon;timestamp;pressure;altitude;pressure_sealevel;temperature;humidity
45253;BME280;63171;50.520;30.486;2023-10-13T00:02:19;99825.91;;;17.50;80.41
45253;BME280;63171;50.520;30.486;2023-10-13T00:03:12;99823.34;;;17.49;80.81
45253;BME280;63171;50.520;30.486;2023-10-13T00:04:04;99830.59;;;17.47;80.76
45253;BME280;63171;50.520;30.486;2023-10-13T00:04:55;99823.09;;;17.52;81.23
45253;BME280;63171;50.520;30.486;2023-10-13T00:05:46;99819.75;;;17.50;81.46
45253;BME280;63171;50.520;30.486;2023-10-13T00:06:37;99818.91;;;17.49;81.72
45253;BME280;63171;50.520;30.486;2023-10-13T00:07:27;99823.78;;;17.54;81.90
45253;BME280;63171;50.520;30.486;2023-10-13T00:08:18;99828.66;;;17.49;82.03
45253;BME280;63171;50.520;30.486;2023-10-13T00:09:10;99831.31;;;17.49;82.31
45253;BME280;63171;50.520;30.486;2023-10-13T00:10:04;99826.97;;;17.57;82.46
45253;BME280;63171;50.520;30.486;2023-10-13T00:10:56;99830.31;;;17.59;82.78
45253;BME280;63171;50.520;30.486;2023-10-13T00:11:49;99826.97;;;17.57;83.03
45253;BME280;63171;50.520;30.486;2023-10-13T00:12:42;99825.16;;;17.58;83.06
45253;BME280;63171;50.520;30.486;2023-10-13T00:13:39;99831.75;;;17.54;83.25
45253;BME280;63171;50.520;30.486;2023-10-13T00:14:34;99819.88;;;17.58;83.46
45253;BME280;63171;50.520;30.486;2023-10-13T00:15:24;99819.72;;;17.59;83.66
45253;BME280;63171;50.520;30.486;2023-10-13T00:16:17;99809.97;;;17.60;83.73
45253;BME280;63171;50.520;30.486;2023-10-13T00:17:10;99807.91;;;17.63;83.93
45253;BME280;63171;50.520;30.486;2023-10-13T00:18:09;99814.16;;;17.62;84.12
45253;BME280;63171;50.520;30.486;2023-10-13T00:19:01;99803.69;;;17.61;84.19
45253;BME280;63171;50.520;30.486;2023-10-13T00:19:55;99808.16;;;17.60;84.21
45253;BME280;63171;50.520;30.486;2023-10-13T00:20:45;99807.91;;;17.63;84.52
45253;BME280;63171;50.520;30.486;2023-10-13T00:21:38;99808.84;;;17.62;84.58
45253;BME280;63171;50.520;30.486;2023-10-13T00:22:31;99813.75;;;17.57;84.46
45253;BME280;63171;50.520;30.486;2023-10-13T00:23:21;99816.53;;;17.56;84.80
45253;BME280;63171;50.520;30.486;2023-10-13T00:24:10;99816.53;;;17.56;84.89
45253;BME280;63171;50.520;30.486;2023-10-13T00:25:04;99815.41;;;17.58;85.05
45253;BME280;63171;50.520;30.486;2023-10-13T00:25:54;99809.28;;;17.58;85.16
45253;BME280;63171;50.520;30.486;2023-10-13T00:26:48;99805.66;;;17.49;85.33
45253;BME280;63171;50.520;30.486;2023-10-13T00:27:38;99802.59;;;17.54;85.59
45253;BME280;63171;50.520;30.486;2023-10-13T00:28:30;99800.94;;;17.53;85.71
45253;BME280;63171;50.520;30.486;2023-10-13T00:29:33;99811.81;;;17.50;85.82
45253;BME280;63171;50.520;30.486;2023-10-13T00:30:26;99818.22;;;17.47;85.88
45253;BME280;63171;50.520;30.486;2023-10-13T00:31:24;99813.63;;;17.39;86.04
45253;BME280;63171;50.520;30.486;2023-10-13T00:32:18;99803.19;;;17.38;86.38
45253;BME280;63171;50.520;30.486;2023-10-13T00:33:16;99809.16;;;17.40;86.50
45253;BME280;63171;50.520;30.486;2023-10-13T00:34:10;99818.22;;;17.47;86.67
45253;BME280;63171;50.520;30.486;2023-10-13T00:35:01;99815.31;;;17.50;87.02
45253;BME280;63171;50.520;30.486;2023-10-13T00:35:54;99812.06;;;17.56;87.18
45253;BME280;63171;50.520;30.486;2023-10-13T00:36:47;99807.63;;;17.57;87.25
45253;BME280;63171;50.520;30.486;2023-10-13T00:37:38;99811.53;;;17.53;87.40
45253;BME280;63171;50.520;30.486;2023-10-13T00:38:32;99814.31;;;17.51;87.52
45253;BME280;63171;50.520;30.486;2023-10-13T00:39:24;99810.56;;;17.54;87.59
45253;BME280;63171;50.520;30.486;2023-10-13T00:40:14;99816.81;;;17.53;87.70
45253;BME280;63171;50.520;30.486;2023-10-13T00:41:27;99814.47;;;17.50;87.83
45253;BME280;63171;50.520;30.486;2023-10-13T00:42:40;99813.88;;;17.56;88.18
45253;BME280;63171;50.520;30.486;2023-10-13T00:43:45;99811.09;;;17.57;88.30
45253;BME280;63171;50.520;30.486;2023-10-13T00:44:36;99811.78;;;17.59;88.35
45253;BME280;63171;50.520;30.486;2023-10-13T00:45:33;99817.78;;;17.61;88.52
45253;BME280;63171;50.520;30.486;2023-10-13T00:46:23;99815.28;;;17.60;88.28
45253;BME280;63171;50.520;30.486;2023-10-13T00:47:22;99811.25;;;17.56;88.47
45253;BME280;63171;50.520;30.486;2023-10-13T00:48:29;99815.41;;;17.58;88.83
45253;BME280;63171;50.520;30.486;2023-10-13T00:49:23;99814.88;;;17.55;88.82
45253;BME280;63171;50.520;30.486;2023-10-13T00:50:13;99811.53;;;17.53;88.85
45253;BME280;63171;50.520;30.486;2023-10-13T00:51:06;99808.59;;;17.46;89.02
45253;BME280;63171;50.520;30.486;2023-10-13T00:51:56;99811.69;;;17.41;89.06
45253;BME280;63171;50.520;30.486;2023-10-13T00:52:48;99810.69;;;17.42;89.29
45253;BME280;63171;50.520;30.486;2023-10-13T00:53:40;99816.53;;;17.46;89.56
45253;BME280;63171;50.520;30.486;2023-10-13T00:54:30;99816.13;;;17.51;89.66
45253;BME280;63171;50.520;30.486;2023-10-13T00:55:20;99819.31;;;17.44;89.65
45253;BME280;63171;50.520;30.486;2023-10-13T00:56:12;99817.22;;;17.48;89.75
45253;BME280;63171;50.520;30.486;2023-10-13T00:57:16;99815.16;;;17.42;89.88
45253;BME280;63171;50.520;30.486;2023-10-13T00:58:15;99814.88;;;17.45;90.10
45253;BME280;63171;50.520;30.486;2023-10-13T00:59:12;99813.19;;;17.44;90.20
45253;BME280;63171;50.520;30.486;2023-10-13T01:00:06;99819.75;;;17.50;90.59
45253;BME280;63171;50.520;30.486;2023-10-13T01:01:02;99817.22;;;17.48;90.44
45253;BME280;63171;50.520;30.486;2023-10-13T01:02:07;99821.16;;;17.44;90.47
45253;BME280;63171;50.520;30.486;2023-10-13T01:03:12;99826.28;;;17.46;90.78
45253;BME280;63171;50.520;30.486;2023-10-13T01:04:05;99824.09;;;17.51;91.10
45253;BME280;63171;50.520;30.486;2023-10-13T01:04:58;99836.75;;;17.47;90.95
45253;BME280;63171;50.520;30.486;2023-10-13T01:05:48;99829.50;;;17.49;90.95
45253;BME280;63171;50.520;30.486;2023-10-13T01:06:43;99829.91;;;17.44;91.01
45253;BME280;63171;50.520;30.486;2023-10-13T01:07:35;99833.53;;;17.43;91.01
45253;BME280;63171;50.520;30.486;2023-10-13T01:08:33;99833.41;;;17.45;91.16
45253;BME280;63171;50.520;30.486;2023-10-13T01:09:24;99835.91;;;17.47;91.31
45253;BME280;63171;50.520;30.486;2023-10-13T01:10:15;99833.69;;;17.42;91.53
45253;BME280;63171;50.520;30.486;2023-10-13T01:11:05;99835.22;;;17.35;91.24
45253;BME280;63171;50.520;30.486;2023-10-13T01:11:57;99829.81;;;17.36;91.49
45253;BME280;63171;50.520;30.486;2023-10-13T01:12:50;99833.28;;;17.37;91.50
45253;BME280;63171;50.520;30.486;2023-10-13T01:13:42;99833.84;;;17.40;91.63
45253;BME280;63171;50.520;30.486;2023-10-13T01:14:32;99840.78;;;17.41;91.79
45253;BME280;63171;50.520;30.486;2023-10-13T01:15:23;99829.50;;;17.39;91.96
45253;BME280;63171;50.520;30.486;2023-10-13T01:16:19;99838.69;;;17.45;92.09
45253;BME280;63171;50.520;30.486;2023-10-13T01:17:13;99836.75;;;17.47;92.15
45253;BME280;63171;50.520;30.486;2023-10-13T01:18:07;99834.25;;;17.46;92.24
45253;BME280;63171;50.520;30.486;2023-10-13T01:19:00;99835.22;;;17.44;92.16
45253;BME280;63171;50.520;30.486;2023-10-13T01:19:54;99838.56;;;17.47;92.31
45253;BME280;63171;50.520;30.486;2023-10-13T01:20:47;99841.19;;;17.47;92.43
45253;BME280;63171;50.520;30.486;2023-10-13T01:21:41;99841.34;;;17.45;92.47
45253;BME280;63171;50.520;30.486;2023-10-13T01:22:31;99841.78;;;17.40;92.55
45253;BME280;63171;50.520;30.486;2023-10-13T01:23:23;99844.28;;;17.42;92.59
45253;BME280;63171;50.520;30.486;2023-10-13T01:24:36;99847.22;;;17.39;92.78
45253;BME280;63171;50.520;30.486;2023-10-13T01:25:27;99856.00;;;17.39;92.91
45253;BME280;63171;50.520;30.486;2023-10-13T01:26:17;99845.81;;;17.44;93.08
45253;BME280;63171;50.520;30.486;2023-10-13T01:27:13;99846.78;;;17.43;93.04
45253;BME280;63171;50.520;30.486;2023-10-13T01:28:07;99847.22;;;17.39;93.13
45253;BME280;63171;50.520;30.486;2023-10-13T01:28:57;99848.34;;;17.36;93.17
45253;BME280;63171;50.520;30.486;2023-10-13T01:29:48;99849.16;;;17.37;93.13
45253;BME280;63171;50.520;30.486;2023-10-13T01:30:40;99849.84;;;17.39;93.31
45253;BME280;63171;50.520;30.486;2023-10-13T01:31:29;99851.69;;;17.38;93.47
45253;BME280;63171;50.520;30.486;2023-10-13T01:32:22;99855.72;;;17.42;93.52
45253;BME280;63171;50.520;30.486;2023-10-13T01:33:13;99843.31;;;17.43;93.46
45253;BME280;63171;50.520;30.486;2023-10-13T01:34:04;99851.94;;;17.45;93.67
45253;BME280;63171;50.520;30.486;2023-10-13T01:34:54;99847.34;;;17.37;93.63
45253;BME280;63171;50.520;30.486;2023-10-13T01:35:46;99851.81;;;17.37;93.54
45253;BME280;63171;50.520;30.486;2023-10-13T01:36:37;99858.06;;;17.36;93.80
45253;BME280;63171;50.520;30.486;2023-10-13T01:37:29;99857.81;;;17.39;93.72
45253;BME280;63171;50.520;30.486;2023-10-13T01:38:19;99854.47;;;17.37;93.73
45253;BME280;63171;50.520;30.486;2023-10-13T01:39:10;99862.25;;;17.29;93.77
45253;BME280;63171;50.520;30.486;2023-10-13T01:40:06;99860.16;;;17.32;94.02
45253;BME280;63171;50.520;30.486;2023-10-13T01:40:56;99863.78;;;17.31;93.73
45253;BME280;63171;50.520;30.486;2023-10-13T01:41:48;99861.00;;;17.33;94.22
45253;BME280;63171;50.520;30.486;2023-10-13T01:42:44;99851.38;;;17.32;94.25
45253;BME280;63171;50.520;30.486;2023-10-13T01:43:35;99864.31;;;17.35;94.38
45253;BME280;63171;50.520;30.486;2023-10-13T01:44:26;99859.03;;;17.35;94.33
45253;BME280;63171;50.520;30.486;2023-10-13T01:45:17;99859.31;;;17.32;94.49
45253;BME280;63171;50.520;30.486;2023-10-13T01:46:09;99860.16;;;17.32;94.53
45253;BME280;63171;50.520;30.486;2023-10-13T01:47:03;99857.66;;;17.31;94.30
45253;BME280;63171;50.520;30.486;2023-10-13T01:47:55;99856.25;;;17.27;94.66
45253;BME280;63171;50.520;30.486;2023-10-13T01:48:47;99857.94;;;17.28;94.74
45253;BME280;63171;50.520;30.486;2023-10-13T01:49:37;99864.34;;;17.25;94.65
45253;BME280;63171;50.520;30.486;2023-10-13T01:50:31;99864.75;;;17.30;94.97
45253;BME280;63171;50.520;30.486;2023-10-13T01:51:21;99865.72;;;17.29;95.01
45253;BME280;63171;50.520;30.486;2023-10-13T01:52:13;99864.06;;;17.28;94.92
45253;BME280;63171;50.520;30.486;2023-10-13T01:53:05;99864.31;;;17.35;95.09
45253;BME280;63171;50.520;30.486;2023-10-13T01:54:01;99859.88;;;17.26;95.03
45253;BME280;63171;50.520;30.486;2023-10-13T01:54:53;99863.09;;;17.29;95.16
45253;BME280;63171;50.520;30.486;2023-10-13T01:55:44;99864.06;;;17.28;95.21
45253;BME280;63171;50.520;30.486;2023-10-13T01:56:33;99868.81;;;17.25;95.29
45253;BME280;63171;50.520;30.486;2023-10-13T01:57:32;99867.00;;;17.25;95.38
45253;BME280;63171;50.520;30.486;2023-10-13T01:58:22;99873.81;;;17.28;95.42
45253;BME280;63171;50.520;30.486;2023-10-13T01:59:13;99877.84;;;17.32;95.52
45253;BME280;63171;50.520;30.486;2023-10-13T02:00:03;99882.16;;;17.33;95.63
45253;BME280;63171;50.520;30.486;2023-10-13T02:01:01;99879.38;;;17.34;95.61
45253;BME280;63171;50.520;30.486;2023-10-13T02:01:51;99886.63;;;17.32;95.67
45253;BME280;63171;50.520;30.486;2023-10-13T02:02:44;99886.63;;;17.32;95.67
45253;BME280;63171;50.520;30.486;2023-10-13T02:03:39;99889.56;;;17.29;95.86
45253;BME280;63171;50.520;30.486;2023-10-13T02:04:37;99895.41;;;17.33;95.82
45253;BME280;63171;50.520;30.486;2023-10-13T02:05:31;99887.47;;;17.33;95.80
45253;BME280;63171;50.520;30.486;2023-10-13T02:06:25;99886.22;;;17.37;95.91
45253;BME280;63171;50.520;30.486;2023-10-13T02:07:19;99887.47;;;17.33;95.93
45253;BME280;63171;50.520;30.486;2023-10-13T02:08:09;99886.47;;;17.34;95.89
45253;BME280;63171;50.520;30.486;2023-10-13T02:09:07;99888.03;;;17.36;96.04
45253;BME280;63171;50.520;30.486;2023-10-13T02:10:04;99889.69;;;17.28;95.97
45253;BME280;63171;50.520;30.486;2023-10-13T02:10:57;99897.50;;;17.29;95.99
45253;BME280;63171;50.520;30.486;2023-10-13T02:11:47;99896.53;;;17.30;95.94
45253;BME280;63171;50.520;30.486;2023-10-13T02:12:43;99893.88;;;17.30;96.11
45253;BME280;63171;50.520;30.486;2023-10-13T02:13:34;99899.72;;;17.24;96.11
45253;BME280;63171;50.520;30.486;2023-10-13T02:14:30;99902.63;;;17.21;95.99
45253;BME280;63171;50.520;30.486;2023-10-13T02:15:22;99903.59;;;17.20;96.10
45253;BME280;63171;50.520;30.486;2023-10-13T02:16:15;99903.47;;;17.22;96.28
45253;BME280;63171;50.520;30.486;2023-10-13T02:17:10;99902.47;;;17.23;96.34
45253;BME280;63171;50.520;30.486;2023-10-13T02:18:06;99908.19;;;17.18;96.38
45253;BME280;63171;50.520;30.486;2023-10-13T02:18:56;99901.22;;;17.17;96.40
45253;BME280;63171;50.520;30.486;2023-10-13T02:19:47;99898.59;;;17.17;96.56
45253;BME280;63171;50.520;30.486;2023-10-13T02:20:37;99903.59;;;17.10;96.51
45253;BME280;63171;50.520;30.486;2023-10-13T02:21:34;99905.53;;;17.08;96.64
45253;BME280;63171;50.520;30.486;2023-10-13T02:22:28;99910.81;;;17.08;96.71
45253;BME280;63171;50.520;30.486;2023-10-13T02:23:22;99914.44;;;17.07;96.85
45253;BME280;63171;50.520;30.486;2023-10-13T02:24:12;99917.09;;;17.07;97.00
45253;BME280;63171;50.520;30.486;2023-10-13T02:25:08;99909.00;;;17.09;97.21
45253;BME280;63171;50.520;30.486;2023-10-13T02:26:08;99911.25;;;17.13;97.21
45253;BME280;63171;50.520;30.486;2023-10-13T02:27:02;99909.59;;;17.12;97.26
45253;BME280;63171;50.520;30.486;2023-10-13T02:27:57;99922.25;;;17.19;97.58
45253;BME280;63171;50.520;30.486;2023-10-13T02:28:48;99917.91;;;17.08;97.41
45253;BME280;63171;50.520;30.486;2023-10-13T02:29:42;99910.56;;;17.11;97.59
45253;BME280;63171;50.520;30.486;2023-10-13T02:30:37;99919.59;;;17.09;97.73
45253;BME280;63171;50.520;30.486;2023-10-13T02:31:27;99923.94;;;17.10;97.84
45253;BME280;63171;50.520;30.486;2023-10-13T02:32:18;99908.44;;;17.05;97.76
45253;BME280;63171;50.520;30.486;2023-10-13T02:33:08;99917.81;;;17.09;97.87
45253;BME280;63171;50.520;30.486;2023-10-13T02:34:01;99918.66;;;17.10;98.00
45253;BME280;63171;50.520;30.486;2023-10-13T02:34:56;99912.63;;;17.08;98.07
45253;BME280;63171;50.520;30.486;2023-10-13T02:35:56;99914.16;;;17.01;98.06
45253;BME280;63171;50.520;30.486;2023-10-13T02:36:47;99919.44;;;17.01;97.84
45253;BME280;63171;50.520;30.486;2023-10-13T02:37:38;99913.59;;;17.07;98.26
45253;BME280;63171;50.520;30.486;2023-10-13T02:38:28;99919.59;;;17.09;98.39
45253;BME280;63171;50.520;30.486;2023-10-13T02:39:35;99928.13;;;17.12;98.48
45253;BME280;63171;50.520;30.486;2023-10-13T02:40:35;99921.16;;;17.11;98.53
45253;BME280;63171;50.520;30.486;2023-10-13T02:41:24;99923.94;;;17.10;98.61
45253;BME280;63171;50.520;30.486;2023-10-13T02:42:15;99929.50;;;17.17;98.92
45253;BME280;63171;50.520;30.486;2023-10-13T02:43:12;99927.28;;;17.12;98.68
45253;BME280;63171;50.520;30.486;2023-10-13T02:44:04;99921.69;;;17.05;98.53
45253;BME280;63171;50.520;30.486;2023-10-13T02:44:55;99927.41;;;17.10;98.68
45253;BME280;63171;50.520;30.486;2023-10-13T02:45:52;99932.81;;;17.09;98.78
45253;BME280;63171;50.520;30.486;2023-10-13T02:46:47;99930.72;;;17.03;98.51
45253;BME280;63171;50.520;30.486;2023-10-13T02:47:39;99937.56;;;17.05;98.86
45253;BME280;63171;50.520;30.486;2023-10-13T02:48:29;99924.63;;;17.12;98.84
45253;BME280;63171;50.520;30.486;2023-10-13T02:49:28;99929.66;;;17.15;98.80
45253;BME280;63171;50.520;30.486;2023-10-13T02:50:22;99926.16;;;17.14;98.85
45253;BME280;63171;50.520;30.486;2023-10-13T02:51:14;99932.28;;;17.15;98.91
45253;BME280;63171;50.520;30.486;2023-10-13T02:52:04;99932.28;;;17.15;98.79
45253;BME280;63171;50.520;30.486;2023-10-13T02:52:58;99937.88;;;17.12;99.04
45253;BME280;63171;50.520;30.486;2023-10-13T02:53:48;99933.97;;;17.16;99.01
45253;BME280;63171;50.520;30.486;2023-10-13T02:54:39;99934.94;;;17.15;98.84
45253;BME280;63171;50.520;30.486;2023-10-13T02:55:38;99936.91;;;17.13;98.86
45253;BME280;63171;50.520;30.486;2023-10-13T02:56:29;99938.56;;;17.14;98.95
45253;BME280;63171;50.520;30.486;2023-10-13T02:57:19;99933.13;;;17.16;99.01
45253;BME280;63171;50.520;30.486;2023-10-13T02:58:08;99937.88;;;17.12;98.99
45253;BME280;63171;50.520;30.486;2023-10-13T02:58:59;99937.44;;;17.17;99.09
45253;BME280;63171;50.520;30.486;2023-10-13T02:59:54;99940.09;;;17.17;99.03
45253;BME280;63171;50.520;30.486;2023-10-13T03:00:48;99929.09;;;17.11;98.92
45253;BME280;63171;50.520;30.486;2023-10-13T03:01:39;99942.56;;;17.08;98.78
45253;BME280;63171;50.520;30.486;2023-10-13T03:02:29;99943.41;;;17.09;98.94
45253;BME280;63171;50.520;30.486;2023-10-13T03:03:19;99940.66;;;17.10;99.10
45253;BME280;63171;50.520;30.486;2023-10-13T03:04:09;99943.84;;;17.14;99.13
45253;BME280;63171;50.520;30.486;2023-10-13T03:05:02;99941.78;;;17.18;99.05
45253;BME280;63171;50.520;30.486;2023-10-13T03:05:59;99948.59;;;17.20;99.22
45253;BME280;63171;50.520;30.486;2023-10-13T03:06:49;99945.81;;;17.22;99.12
45253;BME280;63171;50.520;30.486;2023-10-13T03:07:39;99949.88;;;17.26;99.26
45253;BME280;63171;50.520;30.486;2023-10-13T03:08:32;99943.06;;;17.23;99.12
45253;BME280;63171;50.520;30.486;2023-10-13T03:09:22;99939.44;;;17.24;99.08
45253;BME280;63171;50.520;30.486;2023-10-13T03:10:12;99939.84;;;17.29;99.28
45253;BME280;63171;50.520;30.486;2023-10-13T03:11:03;99933.44;;;17.32;99.22
45253;BME280;63171;50.520;30.486;2023-10-13T03:11:54;99937.63;;;17.34;99.20
45253;BME280;63171;50.520;30.486;2023-10-13T03:12:44;99934.28;;;17.32;99.09
45253;BME280;63171;50.520;30.486;2023-10-13T03:13:38;99937.16;;;17.20;98.68
45253;BME280;63171;50.520;30.486;2023-10-13T03:14:33;99932.28;;;17.15;98.69
45253;BME280;63171;50.520;30.486;2023-10-13T03:15:23;99937.31;;;17.18;98.73
45253;BME280;63171;50.520;30.486;2023-10-13T03:16:20;99932.31;;;17.25;98.86
45253;BME280;63171;50.520;30.486;2023-10-13T03:17:10;99942.63;;;17.28;98.85
45253;BME280;63171;50.520;30.486;2023-10-13T03:18:04;99945.00;;;17.31;98.84
45253;BME280;63171;50.520;30.486;2023-10-13T03:18:53;99939.84;;;17.29;98.77
45253;BME280;63171;50.520;30.486;2023-10-13T03:19:46;99939.56;;;17.32;98.71
45253;BME280;63171;50.520;30.486;2023-10-13T03:20:39;99945.00;;;17.31;98.60
45253;BME280;63171;50.520;30.486;2023-10-13T03:21:31;99938.59;;;17.33;98.65
45253;BME280;63171;50.520;30.486;2023-10-13T03:22:21;99944.03;;;17.32;98.55
45253;BME280;63171;50.520;30.486;2023-10-13T03:23:20;99950.56;;;17.28;98.27
45253;BME280;63171;50.520;30.486;2023-10-13T03:24:11;99949.28;;;17.22;98.20
45253;BME280;63171;50.520;30.486;2023-10-13T03:25:03;99956.41;;;17.22;98.14
45253;BME280;63171;50.520;30.486;2023-10-13T03:25:55;99955.97;;;17.17;98.10
45253;BME280;63171;50.520;30.486;2023-10-13T03:26:47;99953.06;;;17.20;98.10
45253;BME280;63171;50.520;30.486;2023-10-13T03:27:41;99959.03;;;17.22;97.84
45253;BME280;63171;50.520;30.486;2023-10-13T03:28:50;99953.75;;;17.12;97.97
45253;BME280;63171;50.520;30.486;2023-10-13T03:29:44;99946.78;;;17.11;98.14
45253;BME280;63171;50.520;30.486;2023-10-13T03:30:34;99953.00;;;17.00;97.76
45253;BME280;63171;50.520;30.486;2023-10-13T03:31:27;99967.59;;;16.95;97.88
45253;BME280;63171;50.520;30.486;2023-10-13T03:32:18;99968.94;;;16.79;97.75
45253;BME280;63171;50.520;30.486;2023-10-13T03:33:09;99960.34;;;16.66;97.76
45253;BME280;63171;50.520;30.486;2023-10-13T03:34:01;99953.91;;;16.59;97.90
45253;BME280;63171;50.520;30.486;2023-10-13T03:34:53;99963.63;;;16.70;98.14
45253;BME280;63171;50.520;30.486;2023-10-13T03:35:44;99962.53;;;16.82;98.40
45253;BME280;63171;50.520;30.486;2023-10-13T03:36:36;99973.44;;;16.89;98.71
45253;BME280;63171;50.520;30.486;2023-10-13T03:37:40;99967.47;;;16.96;98.92
45253;BME280;63171;50.520;30.486;2023-10-13T03:38:30;99965.41;;;17.00;98.93
45253;BME280;63171;50.520;30.486;2023-10-13T03:39:25;99976.91;;;16.89;98.93
45253;BME280;63171;50.520;30.486;2023-10-13T03:40:19;99974.41;;;16.88;99.05
45253;BME280;63171;50.520;30.486;2023-10-13T03:41:23;99977.56;;;16.81;98.94
45253;BME280;63171;50.520;30.486;2023-10-13T03:42:21;99978.72;;;16.89;99.08
45253;BME280;63171;50.520;30.486;2023-10-13T03:43:11;99982.06;;;16.91;99.17
45253;BME280;63171;50.520;30.486;2023-10-13T03:44:00;99981.09;;;16.92;99.34
45253;BME280;63171;50.520;30.486;2023-10-13T03:45:03;99976.91;;;16.89;99.30
45253;BME280;63171;50.520;30.486;2023-10-13T03:46:00;99973.25;;;16.80;99.23
45253;BME280;63171;50.520;30.486;2023-10-13T03:46:57;99978.81;;;16.77;99.37
45253;BME280;63171;50.520;30.486;2023-10-13T03:47:48;99978.09;;;16.75;99.44
45253;BME280;63171;50.520;30.486;2023-10-13T03:48:41;99983.13;;;16.78;99.56
45253;BME280;63171;50.520;30.486;2023-10-13T03:49:44;99984.38;;;16.74;99.49
45253;BME280;63171;50.520;30.486;2023-10-13T03:50:34;99987.31;;;16.81;99.55
45253;BME280;63171;50.520;30.486;2023-10-13T03:51:25;99989.94;;;16.81;99.86
45253;BME280;63171;50.520;30.486;2023-10-13T03:52:20;99980.63;;;16.77;99.92
45253;BME280;63171;50.520;30.486;2023-10-13T03:53:12;99977.13;;;16.76;99.80
45253;BME280;63171;50.520;30.486;2023-10-13T03:54:03;99983.81;;;16.80;99.92
45253;BME280;63171;50.520;30.486;2023-10-13T03:54:56;99982.63;;;16.84;100.00
45253;BME280;63171;50.520;30.486;2023-10-13T03:55:48;99974.41;;;16.88;100.00
45253;BME280;63171;50.520;30.486;2023-10-13T03:56:38;99973.94;;;16.82;100.00
45253;BME280;63171;50.520;30.486;2023-10-13T03:57:30;99982.28;;;16.78;100.00
45253;BME280;63171;50.520;30.486;2023-10-13T03:58:23;99978.25;;;16.74;100.00
45253;BME280;63171;50.520;30.486;2023-10-13T03:59:16;99972.69;;;16.56;99.85
45253;BME280;63171;50.520;30.486;2023-10-13T04:00:28;99979.47;;;16.49;99.97
45253;BME280;63171;50.520;30.486;2023-10-13T04:01:18;99979.19;;;16.52;100.00
45253;BME280;63171;50.520;30.486;2023-10-13T04:02:09;99977.66;;;16.49;100.00
45253;BME280;63171;50.520;30.486;2023-10-13T04:03:07;99971.84;;;16.55;100.00
45253;BME280;63171;50.520;30.486;2023-10-13T04:03:58;99980.78;;;16.64;100.00
45253;BME280;63171;50.520;30.486;2023-10-13T04:04:52;99984.97;;;16.67;100.00
45253;BME280;63171;50.520;30.486;2023-10-13T04:05:44;99978.84;;;16.66;100.00
45253;BME280;63171;50.520;30.486;2023-10-13T04:06:35;99971.75;;;16.67;100.00
45253;BME280;63171;50.520;30.486;2023-10-13T04:08:03;99973.97;;;16.62;100.00
45253;BME280;63171;50.520;30.486;2023-10-13T04:09:14;99971.00;;;16.55;100.00
45253;BME280;63171;50.520;30.486;2023-10-13T04:10:22;99976.28;;;16.55;100.00
45253;BME280;63171;50.520;30.486;2023-10-13T04:11:45;99974.59;;;16.54;100.00
45253;BME280;63171;50.520;30.486;2023-10-13T04:13:00;99985.19;;;16.54;100.00
45253;BME280;63171;50.520;30.486;2023-10-13T04:14:08;99981.69;;;16.53;100.00
45253;BME280;63171;50.520;30.486;2023-10-13T04:15:19;99984.34;;;16.53;100.00
45253;BME280;63171;50.520;30.486;2023-10-13T04:16:12;99988.03;;;16.62;100.00
45253;BME280;63171;50.520;30.486;2023-10-13T04:17:23;99988.16;;;16.61;100.00
45253;BME280;63171;50.520;30.486;2023-10-13T04:18:15;99994.78;;;16.55;100.00
45253;BME280;63171;50.520;30.486;2023-10-13T04:19:23;99987.53;;;16.47;100.00
45253;BME280;63171;50.520;30.486;2023-10-13T04:20:13;100000.81;;;16.57;100.00
45253;BME280;63171;50.520;30.486;2023-10-13T04:21:03;100001.50;;;16.59;100.00
45253;BME280;63171;50.520;30.486;2023-10-13T04:22:08;99995.31;;;16.49;100.00
45253;BME280;63171;50.520;30.486;2023-10-13T04:23:03;100003.53;;;16.46;100.00
45253;BME280;63171;50.520;30.486;2023-10-13T04:24:08;100001.88;;;16.54;100.00
45253;BME280;63171;50.520;30.486;2023-10-13T04:25:12;100005.84;;;16.60;100.00
45253;BME280;63171;50.520;30.486;2023-10-13T04:26:24;100001.38;;;16.61;100.00
45253;BME280;63171;50.520;30.486;2023-10-13T04:27:25;100013.75;;;16.60;100.00
45253;BME280;63171;50.520;30.486;2023-10-13T04:28:44;100019.69;;;16.52;100.00
45253;BME280;63171;50.520;30.486;2023-10-13T04:29:45;100022.72;;;16.48;100.00
45253;BME280;63171;50.520;30.486;2023-10-13T04:30:38;100017.72;;;16.45;100.00
45253;BME280;63171;50.520;30.486;2023-10-13T04:31:28;100019.19;;;16.38;100.00
45253;BME280;63171;50.520;30.486;2023-10-13T04:32:32;100026.47;;;16.45;100.00
45253;BME280;63171;50.520;30.486;2023-10-13T04:33:29;100022.34;;;16.52;100.00
45253;BME280;63171;50.520;30.486;2023-10-13T04:34:25;100026.50;;;16.55;100.00
45253;BME280;63171;50.520;30.486;2023-10-13T04:35:27;100031.09;;;16.53;100.00
45253;BME280;63171;50.520;30.486;2023-10-13T04:36:23;100031.16;;;16.42;100.00
45253;BME280;63171;50.520;30.486;2023-10-13T04:37:25;100031.69;;;16.36;100.00
45253;BME280;63171;50.520;30.486;2023-10-13T04:38:19;100035.44;;;16.33;100.00
45253;BME280;63171;50.520;30.486;2023-10-13T04:39:10;100040.13;;;16.30;100.00
45253;BME280;63171;50.520;30.486;2023-10-13T04:40:03;100034.50;;;16.23;100.00
45253;BME280;63171;50.520;30.486;2023-10-13T04:40:59;100043.16;;;16.25;100.00
45253;BME280;63171;50.520;30.486;2023-10-13T04:41:50;100040.25;;;16.28;100.00
45253;BME280;63171;50.520;30.486;2023-10-13T04:42:49;100035.59;;;16.20;100.00
45253;BME280;63171;50.520;30.486;2023-10-13T04:43:44;100046.44;;;16.17;100.00
45253;BME280;63171;50.520;30.486;2023-10-13T04:44:45;100038.88;;;16.13;100.00
45253;BME280;63171;50.520;30.486;2023-10-13T04:45:37;100043.31;;;16.12;100.00